Time;durP1;ratioP1;P1;durP2;ratioP2;P2;SDS_P1;SDS_P2;PMS_P1;PMS_P2;Temp;Humidity;BMP_temperature;BMP_pressure;BME280_temperature;BME280_humidity;BME280_pressure;Samples;Min_cycle;Max_cycle;Signal;HPM_P1;HPM_P2
2023/04/24 00:01:03;;;;;;;1.95;1.67;;;;;;;12.66;66.97;98186.00;4974873;28;20046;-81
2023/04/24 00:03:29;;;;;;;2.70;1.70;;;;;;;12.69;67.01;98185.75;4974934;28;20113;-80
2023/04/24 00:05:56;;;;;;;2.45;1.48;;;;;;;12.70;66.89;98190.03;4974383;28;20086;-81
2023/04/24 00:08:23;;;;;;;2.03;1.77;;;;;;;12.71;67.08;98183.81;4957172;28;20097;-81
2023/04/24 00:10:50;;;;;;;2.03;1.90;;;;;;;12.72;67.07;98196.03;4974724;28;20149;-81
2023/04/24 00:13:16;;;;;;;2.35;1.55;;;;;;;12.73;66.96;98187.13;4974735;28;20050;-80
2023/04/24 00:15:43;;;;;;;2.20;1.63;;;;;;;12.72;67.06;98181.03;4972863;28;20050;-81
2023/04/24 00:18:09;;;;;;;2.60;1.40;;;;;;;12.72;66.76;98193.38;4974145;28;20058;-81
2023/04/24 00:20:36;;;;;;;1.67;1.58;;;;;;;12.72;66.85;98196.88;4974421;28;20110;-81
2023/04/24 00:23:02;;;;;;;2.90;1.80;;;;;;;12.71;66.78;98178.53;4974541;28;20114;-81
2023/04/24 00:25:29;;;;;;;1.77;1.35;;;;;;;12.73;66.83;98180.06;4956956;28;20098;-80
2023/04/24 00:27:55;;;;;;;2.33;1.40;;;;;;;12.76;66.94;98194.78;4956672;28;20480;-81
2023/04/24 00:30:22;;;;;;;3.90;1.70;;;;;;;12.76;66.63;98213.25;4974143;28;20051;-80
2023/04/24 00:32:48;;;;;;;1.58;1.48;;;;;;;12.77;66.83;98189.34;4974274;28;20446;-80
2023/04/24 00:35:15;;;;;;;2.17;1.67;;;;;;;12.79;66.96;98185.72;4973637;28;20065;-81
2023/04/24 00:37:41;;;;;;;4.82;1.58;;;;;;;12.74;66.83;98196.72;4973635;28;20476;-80
2023/04/24 00:40:08;;;;;;;2.22;2.03;;;;;;;12.74;67.09;98196.72;4974340;28;20092;-82
2023/04/24 00:42:35;;;;;;;3.28;2.10;;;;;;;12.71;67.27;98195.19;4974103;28;20070;-81
2023/04/24 00:45:03;;;;;;;4.43;2.20;;;;;;;12.67;67.35;98193.78;4973673;28;20047;-81
2023/04/24 00:47:30;;;;;;;2.50;2.30;;;;;;;12.63;67.69;98198.53;4972326;28;20054;-81
2023/04/24 00:49:56;;;;;;;5.97;2.47;;;;;;;12.59;67.82;98202.41;4973687;28;20057;-81
2023/04/24 00:52:24;;;;;;;3.35;2.58;;;;;;;12.54;68.16;98191.44;4972772;28;20043;-81
2023/04/24 00:54:50;;;;;;;2.90;2.50;;;;;;;12.49;68.29;98188.41;4973651;28;20051;-81
2023/04/24 00:57:17;;;;;;;3.88;2.58;;;;;;;12.44;68.71;98188.81;4973200;28;20499;-81
2023/04/24 00:59:44;;;;;;;2.75;2.38;;;;;;;12.41;68.80;98189.06;4956582;28;20043;-81
2023/04/24 01:02:11;;;;;;;4.03;2.92;;;;;;;12.38;68.99;98184.91;4956511;28;20051;-81
2023/04/24 01:04:39;;;;;;;3.13;2.72;;;;;;;12.36;69.17;98184.22;4973507;28;20491;-81
2023/04/24 01:07:10;;;;;;;3.90;2.95;;;;;;;12.34;69.24;98180.88;4973291;28;20093;-81
2023/04/24 01:09:41;;;;;;;3.85;3.03;;;;;;;12.35;69.35;98184.34;4973668;28;20062;-81
2023/04/24 01:12:08;;;;;;;3.03;2.83;;;;;;;12.34;69.38;98178.25;4973636;28;20062;-81
2023/04/24 01:14:36;;;;;;;3.25;2.90;;;;;;;12.34;69.13;98172.97;4956151;28;20054;-81
2023/04/24 01:17:02;;;;;;;3.17;2.88;;;;;;;12.35;69.49;98173.81;4972427;28;20118;-82
2023/04/24 01:19:29;;;;;;;5.15;3.10;;;;;;;12.35;69.44;98174.66;4973515;28;20069;-81
2023/04/24 01:21:59;;;;;;;3.80;3.00;;;;;;;12.35;69.46;98168.53;4973322;28;20129;-81
2023/04/24 01:24:25;;;;;;;3.05;2.75;;;;;;;12.37;69.44;98167.41;4973397;28;20053;-81
2023/04/24 01:26:52;;;;;;;5.95;3.70;;;;;;;12.39;69.39;98169.91;4955314;28;20510;-81
2023/04/24 01:29:19;;;;;;;4.40;3.60;;;;;;;12.41;69.44;98172.41;4973023;28;20047;-81
2023/04/24 01:31:46;;;;;;;3.45;3.15;;;;;;;12.44;69.32;98178.25;4973167;28;20046;-81
2023/04/24 01:34:13;;;;;;;3.72;3.22;;;;;;;12.43;69.16;98165.19;4973113;28;20101;-81
2023/04/24 01:36:41;;;;;;;4.07;3.67;;;;;;;12.45;68.92;98164.06;4972349;28;20050;-81
2023/04/24 01:39:07;;;;;;;3.75;3.22;;;;;;;12.46;68.76;98178.13;4973121;28;20051;-81
2023/04/24 01:41:34;;;;;;;5.82;4.07;;;;;;;12.47;68.84;98174.50;4955796;28;20043;-81
2023/04/24 01:44:01;;;;;;;4.15;3.72;;;;;;;12.48;68.60;98169.09;4972833;28;20101;-81
2023/04/24 01:46:27;;;;;;;5.68;4.18;;;;;;;12.49;68.57;98180.47;4972426;28;20098;-82
2023/04/24 01:48:54;;;;;;;4.15;3.75;;;;;;;12.51;68.55;98175.88;4972336;28;20058;-81
2023/04/24 01:51:21;;;;;;;6.03;3.60;;;;;;;12.53;68.80;98181.88;4973132;28;20157;-81
2023/04/24 01:53:47;;;;;;;5.35;3.70;;;;;;;12.55;68.77;98179.06;4972783;28;20047;-82
2023/04/24 01:56:14;;;;;;;4.03;3.42;;;;;;;12.55;68.95;98172.00;4954983;28;20050;-81
2023/04/24 01:58:41;;;;;;;4.18;3.75;;;;;;;12.55;68.58;98168.50;4971977;28;20499;-81
2023/04/24 02:01:07;;;;;;;7.30;4.00;;;;;;;12.54;68.73;98165.06;4972895;28;20086;-81
2023/04/24 02:03:34;;;;;;;4.50;3.97;;;;;;;12.53;68.52;98170.47;4972524;28;20090;-82
2023/04/24 02:06:01;;;;;;;4.03;3.53;;;;;;;12.50;68.41;98169.78;4954909;28;20059;-81
2023/04/24 02:08:27;;;;;;;4.55;3.70;;;;;;;12.51;68.76;98186.44;4971760;28;20054;-81
2023/04/24 02:10:53;;;;;;;4.30;3.90;;;;;;;12.49;68.67;98177.84;4972419;28;20078;-81
2023/04/24 02:13:20;;;;;;;4.68;3.75;;;;;;;12.50;68.87;98174.22;4972321;28;20090;-81
2023/04/24 02:15:46;;;;;;;4.30;3.90;;;;;;;12.47;68.73;98183.25;4954984;28;20482;-82
2023/04/24 02:18:12;;;;;;;4.22;3.83;;;;;;;12.48;68.86;98182.28;4972119;28;20109;-81
2023/04/24 02:20:39;;;;;;;6.32;4.03;;;;;;;12.47;68.80;98172.69;4972453;28;20106;-81
2023/04/24 02:23:05;;;;;;;3.67;3.38;;;;;;;12.45;68.43;98174.63;4955096;28;20050;-81
2023/04/24 02:25:33;;;;;;;3.80;3.35;;;;;;;12.43;68.80;98167.81;4971791;28;20054;-81
2023/04/24 02:27:59;;;;;;;6.00;3.40;;;;;;;12.41;68.68;98172.41;4971984;28;20113;-81
2023/04/24 02:30:26;;;;;;;6.32;3.50;;;;;;;12.40;68.50;98170.75;4970869;28;20054;-81
2023/04/24 02:32:52;;;;;;;4.85;3.50;;;;;;;12.38;68.67;98171.72;4954886;28;20074;-81
2023/04/24 02:35:19;;;;;;;4.00;3.60;;;;;;;12.38;68.57;98162.97;4971774;28;20050;-81
2023/04/24 02:37:45;;;;;;;3.97;2.92;;;;;;;12.38;68.51;98169.06;4954445;28;20078;-81
2023/04/24 02:40:12;;;;;;;4.20;3.53;;;;;;;12.37;67.91;98171.84;4972101;28;20101;-82
2023/04/24 02:42:38;;;;;;;5.65;3.45;;;;;;;12.38;68.03;98170.91;4971928;28;20101;-81
2023/04/24 02:45:05;;;;;;;5.13;3.63;;;;;;;12.37;67.41;98171.84;4971812;28;20121;-81
2023/04/24 02:47:31;;;;;;;5.00;3.30;;;;;;;12.37;67.31;98171.84;4971782;28;20055;-81
2023/04/24 02:49:58;;;;;;;6.07;3.55;;;;;;;12.37;67.33;98172.69;4971941;28;20082;-81
2023/04/24 02:52:24;;;;;;;8.05;3.20;;;;;;;12.40;67.43;98162.84;4971717;28;20121;-81
2023/04/24 02:54:51;;;;;;;4.85;3.80;;;;;;;12.41;66.99;98186.44;4970387;28;20051;-82
2023/04/24 02:57:17;;;;;;;3.47;3.05;;;;;;;12.42;67.30;98160.88;4971511;28;20082;-82
2023/04/24 02:59:43;;;;;;;3.25;2.85;;;;;;;12.44;67.22;98167.69;4971944;28;20509;-81
2023/04/24 03:02:10;;;;;;;4.40;3.03;;;;;;;12.46;66.98;98164.91;4971957;28;20051;-81
2023/04/24 03:04:36;;;;;;;3.80;3.38;;;;;;;12.48;66.63;98179.63;4971914;28;20093;-81
2023/04/24 03:07:04;;;;;;;3.35;3.05;;;;;;;12.48;66.22;98173.50;4971162;28;20455;-81
2023/04/24 03:09:30;;;;;;;5.22;3.00;;;;;;;12.49;66.10;98167.28;4971730;28;20062;-82
2023/04/24 03:11:58;;;;;;;4.18;3.25;;;;;;;12.50;66.09;98163.66;4971943;28;20051;-81
2023/04/24 03:14:24;;;;;;;4.70;3.58;;;;;;;12.48;65.37;98162.97;4971904;28;20069;-82
2023/04/24 03:16:51;;;;;;;3.85;3.30;;;;;;;12.47;65.77;98167.41;4973265;28;20058;-81
2023/04/24 03:19:17;;;;;;;4.03;3.28;;;;;;;12.46;65.46;98184.22;4958416;28;20447;-81
2023/04/24 03:21:44;;;;;;;4.60;3.60;;;;;;;12.46;65.37;98176.31;4975498;28;20440;-81
2023/04/24 03:24:10;;;;;;;7.53;3.72;;;;;;;12.46;65.05;98180.75;4975447;28;20062;-81
2023/04/24 03:26:36;;;;;;;5.28;3.85;;;;;;;12.46;65.10;98186.03;4974525;28;20093;-81
2023/04/24 03:31:53;;;;;;;6.90;4.40;;;;;;;12.45;64.87;98192.28;4935702;23;20323;-81
2023/04/24 03:34:20;;;;;;;6.88;4.65;;;;;;;12.45;64.73;98190.47;4994728;28;20396;-79
2023/04/24 03:36:49;;;;;;;5.90;4.82;;;;;;;12.44;64.56;98196.72;4993988;28;20050;-79
2023/04/24 03:39:16;;;;;;;7.00;4.80;;;;;;;12.42;64.32;98189.91;4988832;28;20141;-81
2023/04/24 03:41:42;;;;;;;6.43;4.97;;;;;;;12.41;64.48;98182.97;4993331;28;20054;-81
2023/04/24 03:44:09;;;;;;;6.57;5.13;;;;;;;12.37;64.17;98175.31;4994719;28;20058;-80
2023/04/24 03:46:35;;;;;;;8.55;5.63;;;;;;;12.38;64.47;98194.66;4993744;28;20054;-79
2023/04/24 03:49:02;;;;;;;8.05;5.53;;;;;;;12.36;64.38;98196.56;4994335;28;20058;-80
2023/04/24 03:51:30;;;;;;;10.25;6.28;;;;;;;12.34;64.12;98191.44;4993275;28;20067;-81
2023/04/24 03:53:56;;;;;;;7.50;6.05;;;;;;;12.33;64.25;98202.13;4994163;28;20418;-81
2023/04/24 03:56:23;;;;;;;7.45;5.40;;;;;;;12.32;64.23;98189.91;4994084;28;20069;-79
2023/04/24 03:58:49;;;;;;;10.63;6.32;;;;;;;12.30;64.34;98194.50;4993980;28;20062;-79
2023/04/24 04:01:16;;;;;;;8.60;6.38;;;;;;;12.28;64.23;98193.78;4994259;28;20057;-79
2023/04/24 04:03:42;;;;;;;10.80;7.18;;;;;;;12.24;64.38;98188.81;4994126;28;20055;-79
2023/04/24 04:06:11;;;;;;;7.32;5.93;;;;;;;12.23;64.33;98202.94;4992716;28;20050;-80
2023/04/24 04:08:37;;;;;;;8.70;7.40;;;;;;;12.20;64.20;98191.84;4993837;28;20173;-80
2023/04/24 04:11:04;;;;;;;9.50;7.82;;;;;;;12.20;64.11;98205.88;4994876;28;20050;-80
2023/04/24 04:13:31;;;;;;;9.02;7.85;;;;;;;12.20;64.40;98210.31;5004959;28;20561;-80
2023/04/24 04:15:57;;;;;;;11.77;8.50;;;;;;;12.15;64.46;98199.34;4988584;28;20140;-82
2023/04/24 04:18:24;;;;;;;10.88;8.63;;;;;;;12.15;64.49;98210.69;5013282;28;20057;-80
2023/04/24 04:20:50;;;;;;;11.80;8.70;;;;;;;12.13;64.55;98202.09;5005433;28;20057;-80
2023/04/24 04:23:17;;;;;;;12.43;9.68;;;;;;;12.11;64.59;98209.31;5013492;28;20050;-79
2023/04/24 04:25:44;;;;;;;13.88;9.63;;;;;;;12.11;64.57;98207.50;4995552;28;20054;-79
2023/04/24 04:28:10;;;;;;;11.38;10.18;;;;;;;12.10;64.60;98210.28;5012735;28;20129;-80
2023/04/24 04:30:38;;;;;;;14.60;10.82;;;;;;;12.08;64.66;98210.41;4995880;28;20104;-80
2023/04/24 04:33:04;;;;;;;13.13;11.27;;;;;;;12.07;64.93;98214.03;5003298;28;20058;-81
2023/04/24 04:35:31;;;;;;;15.38;12.13;;;;;;;12.07;64.79;98215.84;4975958;28;20102;-80
2023/04/24 04:37:58;;;;;;;13.38;11.05;;;;;;;12.06;64.96;98212.38;4976080;28;20141;-79
2023/04/24 04:40:26;;;;;;;16.23;13.05;;;;;;;12.05;64.88;98231.81;4993584;28;20089;-81
2023/04/24 04:42:53;;;;;;;15.40;12.35;;;;;;;12.05;65.02;98207.19;4992353;28;20066;-80
2023/04/24 04:45:20;;;;;;;17.77;13.02;;;;;;;12.04;64.88;98221.34;4993134;28;20058;-79
2023/04/24 04:47:47;;;;;;;20.50;13.07;;;;;;;12.03;64.89;98220.50;4993251;28;20065;-81
2023/04/24 04:50:14;;;;;;;15.75;12.68;;;;;;;12.02;65.01;98228.56;4975873;28;20478;-80
2023/04/24 04:52:40;;;;;;;15.38;12.68;;;;;;;11.98;65.14;98231.47;4993403;28;20050;-80
2023/04/24 04:55:07;;;;;;;16.42;13.05;;;;;;;11.96;64.90;98237.84;4993080;28;20050;-82
2023/04/24 04:57:34;;;;;;;16.40;12.52;;;;;;;11.94;65.28;98231.88;4991799;28;20562;-81
2023/04/24 05:00:01;;;;;;;16.25;13.20;;;;;;;11.91;65.31;98237.41;5000989;28;20046;-80
2023/04/24 05:02:27;;;;;;;14.57;11.48;;;;;;;11.91;65.31;98240.88;4991515;28;20056;-80
2023/04/24 05:04:54;;;;;;;16.73;11.95;;;;;;;11.91;65.43;98240.03;4983487;28;20049;-79
2023/04/24 05:07:21;;;;;;;15.68;12.38;;;;;;;11.91;65.30;98240.88;4992999;28;20128;-79
2023/04/24 05:09:48;;;;;;;20.42;13.07;;;;;;;11.91;65.41;98242.66;4995362;28;20077;-81
2023/04/24 05:12:15;;;;;;;16.17;12.50;;;;;;;11.93;65.41;98248.66;4995209;28;20144;-80
2023/04/24 05:14:41;;;;;;;17.35;11.90;;;;;;;11.93;65.46;98243.38;5012275;28;20049;-80
2023/04/24 05:17:08;;;;;;;16.88;12.43;;;;;;;11.93;65.29;98246.03;5010507;28;20677;-79
2023/04/24 05:19:37;;;;;;;15.73;11.63;;;;;;;11.93;65.30;98246.03;5012316;28;20051;-79
2023/04/24 05:22:06;;;;;;;15.98;11.55;;;;;;;11.93;65.23;98238.13;4988454;28;20513;-80
2023/04/24 05:24:34;;;;;;;15.80;11.48;;;;;;;11.94;65.31;98237.13;5002452;28;20054;-82
2023/04/24 05:27:02;;;;;;;17.52;10.48;;;;;;;11.94;65.30;98231.88;4987297;28;20097;-79
2023/04/24 05:29:30;;;;;;;17.33;11.13;;;;;;;11.92;65.00;98233.81;5010906;28;20077;-80
2023/04/24 05:31:57;;;;;;;14.02;10.35;;;;;;;11.93;65.40;98233.66;4994267;28;20061;-81
2023/04/24 05:34:24;;;;;;;15.50;10.38;;;;;;;11.95;65.39;98220.34;4994948;28;20054;-79
2023/04/24 05:36:51;;;;;;;15.10;10.48;;;;;;;11.96;65.27;98237.84;5009931;28;20173;-80
2023/04/24 05:39:19;;;;;;;14.50;11.45;;;;;;;11.99;65.30;98234.94;5011441;28;20058;-80
2023/04/24 05:41:45;;;;;;;14.45;10.98;;;;;;;12.00;64.93;98241.88;5010833;28;20062;-81
2023/04/24 05:44:12;;;;;;;16.33;11.43;;;;;;;12.02;65.17;98239.09;5011945;28;20058;-79
2023/04/24 05:46:39;;;;;;;17.25;12.60;;;;;;;12.02;65.14;98239.09;4993674;28;20479;-78
2023/04/24 05:49:05;;;;;;;21.25;12.48;;;;;;;12.03;65.00;98243.44;4994887;28;20053;-79
2023/04/24 05:51:32;;;;;;;16.27;13.07;;;;;;;12.03;65.18;98252.16;5011871;28;20745;-79
2023/04/24 05:53:59;;;;;;;15.95;12.02;;;;;;;12.03;65.25;98246.88;4995267;28;20057;-80
2023/04/24 05:56:25;;;;;;;17.60;13.05;;;;;;;12.03;65.17;98238.16;4990630;28;20120;-80
2023/04/24 05:58:52;;;;;;;18.88;13.40;;;;;;;12.04;65.35;98245.91;4991805;28;20108;-80
2023/04/24 06:01:19;;;;;;;15.43;13.13;;;;;;;12.05;65.08;98237.06;4992126;28;20498;-79
2023/04/24 06:03:46;;;;;;;19.60;14.27;;;;;;;12.06;65.20;98246.66;4992477;28;20050;-79
2023/04/24 06:06:13;;;;;;;22.33;14.77;;;;;;;12.07;65.09;98245.66;4974413;28;20058;-79
2023/04/24 06:08:39;;;;;;;20.00;15.48;;;;;;;12.08;65.13;98249.97;4991541;28;20058;-80
2023/04/24 06:11:08;;;;;;;16.08;13.88;;;;;;;12.10;65.05;98245.41;4991977;28;20081;-79
2023/04/24 06:13:34;;;;;;;18.13;14.10;;;;;;;12.11;64.91;98251.50;4991800;28;20062;-78
2023/04/24 06:16:01;;;;;;;23.33;15.90;;;;;;;12.14;65.08;98248.59;4991874;28;20062;-78
2023/04/24 06:18:28;;;;;;;24.27;15.13;;;;;;;12.15;65.13;98249.44;4991313;28;20058;-78
2023/04/24 06:20:55;;;;;;;18.38;14.98;;;;;;;12.16;65.16;98248.47;4974579;28;20058;-78
2023/04/24 06:23:21;;;;;;;20.23;14.85;;;;;;;12.17;65.16;98245.72;4990315;28;20054;-78
2023/04/24 06:25:48;;;;;;;20.50;14.95;;;;;;;12.20;65.18;98249.88;5005471;28;20056;-78
2023/04/24 06:28:15;;;;;;;21.40;15.55;;;;;;;12.21;65.45;98256.81;5004935;28;20085;-79
2023/04/24 06:30:41;;;;;;;19.30;14.82;;;;;;;12.23;65.13;98250.44;5006736;28;20116;-77
2023/04/24 06:33:08;;;;;;;21.40;16.27;;;;;;;12.24;65.09;98253.91;4973958;28;20495;-80
2023/04/24 06:35:47;;;;;;;19.35;15.40;;;;;;;12.27;64.83;98253.66;5004817;28;20408;-79
2023/04/24 06:38:13;;;;;;;19.40;13.25;;;;;;;12.28;65.05;98247.41;4991046;28;20057;-79
2023/04/24 06:40:40;;;;;;;19.35;13.93;;;;;;;12.29;64.88;98254.34;4991360;28;20066;-78
2023/04/24 06:43:07;;;;;;;18.63;13.75;;;;;;;12.29;64.80;98249.06;4991689;28;20054;-80
2023/04/24 06:45:33;;;;;;;20.38;13.88;;;;;;;12.32;64.60;98254.06;5004958;28;20090;-79
2023/04/24 06:48:00;;;;;;;18.48;14.40;;;;;;;12.33;64.48;98255.72;4990022;28;20086;-78
2023/04/24 06:50:27;;;;;;;16.73;12.80;;;;;;;12.36;64.43;98259.91;4972791;28;20105;-78
2023/04/24 06:52:53;;;;;;;17.52;13.48;;;;;;;12.37;64.19;98269.47;4990203;28;20141;-80
2023/04/24 06:55:20;;;;;;;17.08;12.55;;;;;;;12.38;64.12;98253.50;4989559;28;20061;-77
2023/04/24 06:57:47;;;;;;;17.35;12.30;;;;;;;12.40;64.07;98265.75;4972410;28;20051;-78
2023/04/24 07:00:14;;;;;;;19.90;14.10;;;;;;;12.40;63.64;98261.28;4973979;28;20680;-78
2023/04/24 07:02:40;;;;;;;17.40;12.80;;;;;;;12.40;63.97;98257.84;4973984;28;20065;-78
2023/04/24 07:05:08;;;;;;;15.25;13.20;;;;;;;12.41;63.87;98259.50;4973407;28;20613;-78
2023/04/24 07:07:37;;;;;;;21.98;14.32;;;;;;;12.40;63.59;98263.13;4990236;28;20062;-79
2023/04/24 07:10:05;;;;;;;20.30;14.15;;;;;;;12.38;63.47;98264.06;4991060;28;20133;-79
2023/04/24 07:12:32;;;;;;;21.25;12.90;;;;;;;12.40;63.69;98263.13;4991337;28;20058;-78
2023/04/24 07:15:00;;;;;;;19.45;14.32;;;;;;;12.37;63.18;98274.75;4990626;28;20058;-80
2023/04/24 07:17:27;;;;;;;15.82;13.63;;;;;;;12.34;63.21;98267.94;4973305;28;20138;-78
2023/04/24 07:19:53;;;;;;;18.52;12.55;;;;;;;12.34;63.30;98267.94;4973610;28;20550;-78
2023/04/24 07:22:20;;;;;;;18.67;12.95;;;;;;;12.35;63.44;98271.44;4990977;28;20054;-79
2023/04/24 07:24:47;;;;;;;13.77;12.13;;;;;;;12.36;63.53;98267.81;5005787;28;20542;-79
2023/04/24 07:27:14;;;;;;;21.63;12.82;;;;;;;12.37;63.37;98267.69;4990774;28;20073;-78
2023/04/24 07:29:42;;;;;;;14.75;10.88;;;;;;;12.39;63.12;98272.81;4991015;28;20064;-80
2023/04/24 07:32:09;;;;;;;14.85;10.93;;;;;;;12.38;63.05;98261.44;4973562;28;20058;-78
2023/04/24 07:34:35;;;;;;;12.48;10.10;;;;;;;12.40;63.00;98284.22;4991044;28;20133;-80
2023/04/24 07:37:03;;;;;;;15.13;9.35;;;;;;;12.39;62.60;98278.09;4988837;28;20058;-80
2023/04/24 07:39:29;;;;;;;11.00;9.20;;;;;;;12.40;62.93;98278.94;5006148;28;20058;-78
2023/04/24 07:41:56;;;;;;;14.27;9.82;;;;;;;12.37;62.87;98286.16;4991000;28;20135;-79
2023/04/24 07:44:23;;;;;;;10.50;8.27;;;;;;;12.34;62.39;98278.50;4973631;28;20066;-78
2023/04/24 07:46:49;;;;;;;11.38;8.52;;;;;;;12.32;62.86;98277.81;4989871;28;20050;-78
2023/04/24 07:49:16;;;;;;;10.70;8.13;;;;;;;12.31;62.93;98277.94;4990700;28;20055;-80
2023/04/24 07:51:45;;;;;;;8.32;7.38;;;;;;;12.29;63.19;98286.00;4973756;28;20089;-79
2023/04/24 07:54:12;;;;;;;9.95;7.57;;;;;;;12.30;63.35;98282.38;4991146;28;20071;-80
2023/04/24 07:56:42;;;;;;;7.78;6.70;;;;;;;12.32;63.37;98279.59;5004693;28;20058;-80
2023/04/24 07:59:10;;;;;;;10.65;7.57;;;;;;;12.35;63.23;98272.28;4990524;28;20054;-79
2023/04/24 08:01:37;;;;;;;8.75;6.57;;;;;;;12.41;63.29;98278.78;4991085;28;20081;-79
2023/04/24 08:04:04;;;;;;;9.10;7.28;;;;;;;12.43;63.05;98281.28;4976782;28;20062;-79
2023/04/24 08:06:31;;;;;;;7.45;6.75;;;;;;;12.47;62.95;98295.88;4976671;28;20520;-78
2023/04/24 08:09:00;;;;;;;10.05;8.05;;;;;;;12.45;62.54;98280.19;4977113;28;20388;-81
2023/04/24 08:11:27;;;;;;;9.50;8.38;;;;;;;12.45;62.61;98288.09;4976638;28;20407;-80
2023/04/24 08:13:54;;;;;;;12.48;8.75;;;;;;;12.40;62.45;98285.03;4976677;28;20058;-82
2023/04/24 08:16:23;;;;;;;9.85;8.57;;;;;;;12.37;62.46;98293.22;4976289;28;20614;-80
2023/04/24 08:18:51;;;;;;;10.57;8.98;;;;;;;12.33;62.65;98297.09;4968668;28;20084;-80
2023/04/24 08:21:18;;;;;;;12.48;9.90;;;;;;;12.30;62.79;98305.31;4976727;28;20089;-77
2023/04/24 08:23:45;;;;;;;11.75;9.23;;;;;;;12.26;62.87;98307.34;4993880;28;20090;-78
2023/04/24 08:26:13;;;;;;;13.32;9.20;;;;;;;12.22;63.14;98311.22;4976196;28;20522;-79
2023/04/24 08:28:39;;;;;;;10.13;9.00;;;;;;;12.15;63.12;98310.13;4993287;28;20085;-79
2023/04/24 08:31:06;;;;;;;10.48;9.40;;;;;;;12.07;63.57;98318.72;4993764;28;20062;-80
2023/04/24 08:33:36;;;;;;;11.25;8.95;;;;;;;12.02;63.59;98320.84;4975988;28;20141;-79
2023/04/24 08:36:03;;;;;;;10.38;8.68;;;;;;;11.94;63.70;98317.09;4993714;28;20069;-78
2023/04/24 08:38:31;;;;;;;9.95;8.43;;;;;;;11.89;63.98;98323.72;5008064;28;20785;-78
2023/04/24 08:41:00;;;;;;;9.57;8.63;;;;;;;11.84;64.33;98324.94;4976380;28;20054;-78
2023/04/24 08:43:27;;;;;;;9.27;8.38;;;;;;;11.82;64.57;98332.13;5008425;28;20054;-78
2023/04/24 08:45:57;;;;;;;9.40;8.48;;;;;;;11.79;64.57;98327.16;4976034;28;20065;-80
2023/04/24 08:48:24;;;;;;;9.20;8.30;;;;;;;11.79;64.58;98327.16;4992852;28;20058;-78
2023/04/24 08:50:58;;;;;;;13.68;8.77;;;;;;;11.78;64.75;98330.72;4993630;28;20070;-79
2023/04/24 08:53:26;;;;;;;8.68;7.53;;;;;;;11.78;64.85;98330.72;4975964;28;20073;-78
2023/04/24 08:55:55;;;;;;;8.13;7.32;;;;;;;11.79;64.79;98340.34;4975917;28;20116;-78
2023/04/24 08:58:25;;;;;;;10.77;7.75;;;;;;;11.79;65.01;98336.84;4992809;28;20575;-78
2023/04/24 09:00:54;;;;;;;9.45;8.10;;;;;;;11.81;64.78;98342.84;4993261;28;20566;-79
2023/04/24 09:03:22;;;;;;;8.05;7.25;;;;;;;11.82;64.93;98339.22;4993377;28;20415;-80
2023/04/24 09:05:50;;;;;;;7.93;7.18;;;;;;;11.82;64.70;98342.69;5007958;28;20058;-78
2023/04/24 09:08:18;;;;;;;8.25;7.45;;;;;;;11.82;64.99;98340.06;4992640;28;20086;-80
2023/04/24 09:10:45;;;;;;;10.60;7.28;;;;;;;11.85;65.02;98331.06;4975695;28;20066;-79
2023/04/24 09:13:15;;;;;;;8.30;7.45;;;;;;;11.87;65.10;98337.03;4992273;28;20141;-79
2023/04/24 09:15:42;;;;;;;9.10;7.47;;;;;;;11.88;65.13;98343.16;4992638;28;20510;-80
2023/04/24 09:18:09;;;;;;;8.20;6.85;;;;;;;11.86;65.19;98338.81;4992529;28;20054;-81
2023/04/24 09:21:00;;;;;;;7.53;6.50;;;;;;;11.83;66.04;98347.00;4993041;28;20055;-80
2023/04/24 09:23:31;;;;;;;8.15;6.35;;;;;;;11.86;65.54;98346.72;4993208;28;20046;-79
2023/04/24 09:26:00;;;;;;;8.13;7.10;;;;;;;11.86;65.67;98356.47;4992672;28;20121;-81
2023/04/24 09:28:30;;;;;;;7.03;5.57;;;;;;;11.84;65.39;98358.38;4992177;28;20527;-80
2023/04/24 09:31:03;;;;;;;6.30;5.55;;;;;;;11.81;66.18;98354.19;5007565;28;20415;-80
2023/04/24 09:33:30;;;;;;;7.25;5.45;;;;;;;11.82;65.58;98362.97;4639953;23;20514;-79
2023/04/24 09:35:58;;;;;;;8.50;5.10;;;;;;;11.80;65.84;98364.88;5011618;28;20145;-79
2023/04/24 09:38:33;;;;;;;6.65;4.78;;;;;;;11.74;66.58;98366.25;5011909;28;20060;-79
2023/04/24 09:41:07;;;;;;;4.78;3.72;;;;;;;11.73;66.01;98368.03;5012052;28;20057;-79
2023/04/24 09:43:35;;;;;;;5.63;4.15;;;;;;;11.70;66.00;98375.38;5012276;28;20089;-79
2023/04/24 09:46:08;;;;;;;7.18;5.13;;;;;;;11.64;66.59;98373.25;5011629;28;20054;-80
2023/04/24 09:48:37;;;;;;;7.00;4.72;;;;;;;11.62;67.04;98376.00;5008651;28;20062;-80
2023/04/24 09:51:11;;;;;;;7.68;4.75;;;;;;;11.60;67.11;98376.13;5011919;28;20053;-79
2023/04/24 09:53:39;;;;;;;6.80;5.10;;;;;;;11.60;67.27;98384.03;5012092;28;20050;-80
2023/04/24 09:56:09;;;;;;;6.00;4.75;;;;;;;11.58;67.89;98398.31;5011347;28;20050;-80
2023/04/24 09:58:36;;;;;;;4.30;3.83;;;;;;;11.58;67.75;98393.88;5010259;28;20046;-79
2023/04/24 10:01:03;;;;;;;4.15;3.40;;;;;;;11.60;68.41;98412.22;5011620;28;20652;-79
2023/04/24 10:03:32;;;;;;;3.15;2.85;;;;;;;11.59;68.32;98411.38;5010597;28;20049;-79
2023/04/24 10:06:00;;;;;;;3.47;2.60;;;;;;;11.58;68.06;98401.78;5011237;28;20054;-79
2023/04/24 10:08:26;;;;;;;3.22;2.47;;;;;;;11.54;68.10;98413.56;5011079;28;20490;-79
2023/04/24 10:10:53;;;;;;;2.92;2.45;;;;;;;11.48;68.26;98414.06;5011576;28;20057;-79
2023/04/24 10:13:20;;;;;;;2.30;2.10;;;;;;;11.39;68.59;98415.66;5011478;28;20050;-79
2023/04/24 10:15:47;;;;;;;1.98;1.60;;;;;;;11.32;68.64;98427.66;5010860;28;20046;-78
2023/04/24 10:18:15;;;;;;;2.47;1.70;;;;;;;11.23;68.88;98410.81;5011070;28;20054;-78
2023/04/24 10:20:42;;;;;;;2.88;2.10;;;;;;;11.17;68.98;98427.09;5011230;28;20057;-78
2023/04/24 10:23:10;;;;;;;2.08;1.88;;;;;;;11.07;69.51;98433.09;5011362;28;20057;-77
2023/04/24 10:25:37;;;;;;;2.58;2.20;;;;;;;11.02;69.69;98440.56;5010364;28;20072;-78
2023/04/24 10:28:05;;;;;;;3.78;2.30;;;;;;;10.97;70.02;98431.34;5010881;28;20066;-78
2023/04/24 10:30:35;;;;;;;3.25;2.35;;;;;;;10.92;70.23;98443.06;5009793;28;20096;-78
2023/04/24 10:33:06;;;;;;;2.97;1.92;;;;;;;10.88;70.45;98451.34;5011174;28;20057;-78
2023/04/24 10:35:40;;;;;;;3.40;2.38;;;;;;;10.80;71.15;98444.91;5010923;28;20149;-78
2023/04/24 10:38:11;;;;;;;4.93;2.58;;;;;;;10.78;70.94;98451.25;5010888;28;20104;-78
2023/04/24 10:40:38;;;;;;;2.58;2.33;;;;;;;10.73;70.98;98443.69;5009850;28;20053;-78
2023/04/24 10:43:07;;;;;;;3.15;2.10;;;;;;;10.69;71.46;98451.00;5011177;28;20089;-78
2023/04/24 10:45:34;;;;;;;3.08;1.95;;;;;;;10.68;71.59;98459.88;5010611;28;20060;-78
2023/04/24 10:48:03;;;;;;;5.05;2.00;;;;;;;10.66;72.10;98464.41;5010609;28;20053;-78
2023/04/24 10:50:47;;;;;;;3.15;2.13;;;;;;;10.64;72.86;98476.00;5011094;28;20140;-78
2023/04/24 10:53:18;;;;;;;3.10;1.85;;;;;;;10.65;72.74;98481.16;5009803;28;20072;-78
2023/04/24 10:55:48;;;;;;;2.38;1.60;;;;;;;10.68;72.87;98485.34;5010639;28;20141;-78
2023/04/24 10:58:16;;;;;;;2.25;1.70;;;;;;;10.71;72.85;98490.38;5009300;28;20085;-78
2023/04/24 11:00:46;;;;;;;2.67;1.77;;;;;;;10.72;72.79;98512.28;5010851;28;20058;-78
2023/04/24 11:03:24;;;;;;;2.78;2.17;;;;;;;10.69;73.30;98508.91;5010764;28;20136;-78
2023/04/24 11:06:03;;;;;;;3.75;2.38;;;;;;;10.73;73.14;98509.50;5010689;28;20054;-78
2023/04/24 11:08:43;;;;;;;5.82;3.55;;;;;;;10.71;74.09;98521.09;5010337;28;20136;-78
2023/04/24 11:11:14;;;;;;;6.68;4.47;;;;;;;10.77;73.85;98523.28;5010976;28;20053;-78
2023/04/24 11:13:53;;;;;;;7.28;5.60;;;;;;;10.76;74.28;98529.50;5010637;28;20072;-78
2023/04/24 11:16:33;;;;;;;11.95;6.60;;;;;;;10.81;73.76;98527.34;5010457;28;20050;-78
2023/04/24 11:19:04;;;;;;;9.75;7.00;;;;;;;10.83;74.21;98533.31;5009339;28;20060;-78
2023/04/24 11:22:01;;;;;;;10.45;7.15;;;;;;;10.84;74.09;98542.88;5010751;28;20088;-78
2023/04/24 11:24:30;;;;;;;11.38;6.78;;;;;;;10.90;74.20;98554.72;5010680;28;20061;-78
2023/04/24 11:27:03;;;;;;;9.25;6.68;;;;;;;10.93;74.18;98557.13;5010122;28;20054;-78
2023/04/24 11:29:56;;;;;;;8.57;6.57;;;;;;;10.91;74.36;98561.66;5010405;28;20065;-78
2023/04/24 11:32:37;;;;;;;;;;;;;;;10.97;73.84;98558.56;5003086;28;20062;-78
2023/04/24 11:35:16;;;;;;;7.70;5.80;;;;;;;11.00;73.84;98576.78;5010470;28;19999;-78